Time;durP1;ratioP1;P1;durP2;ratioP2;P2;SDS_P1;SDS_P2;PMS_P1;PMS_P2;Temp;Humidity;BMP_temperature;BMP_pressure;BME280_temperature;BME280_humidity;BME280_pressure;Samples;Min_cycle;Max_cycle;Signal;HPM_P1;HPM_P2
2021/10/09 00:01:34;;;;;;;41.33;28.40;;;9.30;99.90;;;;;;4929218;28;20035;-85
2021/10/09 00:03:59;;;;;;;45.38;27.80;;;9.40;99.90;;;;;;4929385;28;20056;-85
2021/10/09 00:06:25;;;;;;;45.33;28.17;;;9.20;99.90;;;;;;4909824;28;20028;-85
2021/10/09 00:08:50;;;;;;;42.78;27.27;;;9.20;99.90;;;;;;4897650;28;20058;-85
2021/10/09 00:11:19;;;;;;;43.47;29.02;;;9.20;99.90;;;;;;4919872;28;20072;-85
2021/10/09 00:13:45;;;;;;;48.85;29.08;;;9.20;99.90;;;;;;4943952;28;20055;-84
2021/10/09 00:16:11;;;;;;;43.88;29.00;;;9.20;99.90;;;;;;4918710;28;20029;-84
2021/10/09 00:18:36;;;;;;;46.90;29.67;;;9.10;99.90;;;;;;4915602;28;20392;-84
2021/10/09 00:21:02;;;;;;;48.42;30.83;;;9.00;99.90;;;;;;4932724;28;20035;-84
2021/10/09 00:23:27;;;;;;;41.97;26.35;;;9.20;99.90;;;;;;4936688;28;20032;-85
2021/10/09 00:25:55;;;;;;;44.63;26.38;;;9.10;99.90;;;;;;4909164;28;20060;-84
2021/10/09 00:28:21;;;;;;;45.83;30.05;;;9.20;99.90;;;;;;4942113;28;20032;-84
2021/10/09 00:30:46;;;;;;;45.40;27.83;;;9.10;99.90;;;;;;4908112;28;20051;-84
2021/10/09 00:33:12;;;;;;;49.03;30.35;;;9.10;99.90;;;;;;4913442;29;20059;-85
2021/10/09 00:35:37;;;;;;;49.13;30.98;;;9.00;99.90;;;;;;4912188;28;20091;-84
2021/10/09 00:38:03;;;;;;;35.60;23.30;;;8.90;99.90;;;;;;4917264;28;20033;-84
2021/10/09 00:40:28;;;;;;;53.72;32.05;;;9.00;99.90;;;;;;4945880;28;20033;-84
2021/10/09 00:42:54;;;;;;;52.40;31.98;;;9.00;99.90;;;;;;4915974;28;20087;-84
2021/10/09 00:45:19;;;;;;;48.13;30.25;;;8.80;99.90;;;;;;4921819;28;20103;-85
2021/10/09 00:47:45;;;;;;;43.60;27.88;;;8.70;99.90;;;;;;4917098;28;20142;-84
2021/10/09 00:50:11;;;;;;;47.30;30.17;;;8.70;99.90;;;;;;4927450;28;20056;-84
2021/10/09 00:52:36;;;;;;;52.58;30.58;;;8.70;99.90;;;;;;4924241;28;20043;-85
2021/10/09 00:55:03;;;;;;;45.20;29.38;;;8.70;99.90;;;;;;4901853;29;20080;-85
2021/10/09 00:57:29;;;;;;;46.95;29.52;;;8.60;99.90;;;;;;4944453;28;20416;-84
2021/10/09 00:59:54;;;;;;;47.30;29.98;;;8.60;99.90;;;;;;4914971;28;20041;-85
2021/10/09 01:02:20;;;;;;;46.55;30.50;;;8.50;99.90;;;;;;4908382;28;20056;-84
2021/10/09 01:04:47;;;;;;;47.30;30.60;;;8.40;99.90;;;;;;4946014;28;20039;-84
2021/10/09 01:07:13;;;;;;;43.90;29.02;;;8.40;99.90;;;;;;4923110;28;20039;-85
2021/10/09 01:09:38;;;;;;;54.17;31.30;;;8.40;99.90;;;;;;4929738;28;20031;-85
2021/10/09 01:12:04;;;;;;;54.50;31.23;;;8.40;99.90;;;;;;4906123;28;20040;-85
2021/10/09 01:14:29;;;;;;;56.25;31.27;;;8.30;99.90;;;;;;4924280;28;20567;-85
2021/10/09 01:16:55;;;;;;;56.28;32.83;;;8.30;99.90;;;;;;4929441;28;20503;-85
2021/10/09 01:19:20;;;;;;;58.00;33.97;;;8.40;99.90;;;;;;4906623;28;20809;-85
2021/10/09 01:21:47;;;;;;;52.70;32.58;;;8.40;99.90;;;;;;4935786;28;20476;-84
2021/10/09 01:24:13;;;;;;;54.35;32.83;;;8.30;99.90;;;;;;4928011;28;20063;-85
2021/10/09 01:26:39;;;;;;;56.53;34.28;;;8.30;99.90;;;;;;4913452;28;20049;-85
2021/10/09 01:29:05;;;;;;;57.58;33.92;;;8.40;99.90;;;;;;4944461;28;20056;-85
2021/10/09 01:31:32;;;;;;;57.22;32.58;;;8.30;99.90;;;;;;4921595;28;20115;-85
2021/10/09 01:33:57;;;;;;;52.30;32.47;;;8.20;99.90;;;;;;4896491;28;20045;-84
2021/10/09 01:36:27;;;;;;;52.22;31.27;;;8.20;99.90;;;;;;4900262;28;20036;-85
2021/10/09 01:38:53;;;;;;;56.70;32.65;;;8.10;99.90;;;;;;4930861;28;20503;-85
2021/10/09 01:41:18;;;;;;;53.75;31.45;;;8.20;99.90;;;;;;4930777;28;20054;-85
2021/10/09 01:43:44;;;;;;;49.95;29.88;;;8.10;99.90;;;;;;4913913;28;20055;-85
2021/10/09 01:46:10;;;;;;;103.70;32.03;;;8.10;99.90;;;;;;4903423;28;20040;-85
2021/10/09 01:48:38;;;;;;;58.50;31.02;;;8.10;99.90;;;;;;4920620;28;20548;-85
2021/10/09 01:51:04;;;;;;;48.50;30.52;;;8.10;99.90;;;;;;4911381;28;20078;-85
2021/10/09 01:53:30;;;;;;;51.25;29.73;;;8.00;99.90;;;;;;4946529;28;20496;-85
2021/10/09 01:55:55;;;;;;;44.20;27.25;;;7.90;99.90;;;;;;4921775;28;20035;-85
2021/10/09 01:58:21;;;;;;;44.75;28.75;;;7.90;99.90;;;;;;4915050;28;20051;-86
2021/10/09 02:00:46;;;;;;;44.03;28.65;;;7.80;99.90;;;;;;4913887;28;20036;-85
2021/10/09 02:03:14;;;;;;;47.17;28.80;;;7.70;99.90;;;;;;4917105;28;20035;-86
2021/10/09 02:05:40;;;;;;;42.53;27.75;;;7.70;99.90;;;;;;4912714;28;20036;-86
2021/10/09 02:08:05;;;;;;;33.13;21.33;;;7.60;99.90;;;;;;4940354;28;20407;-85
2021/10/09 02:10:31;;;;;;;201.95;25.90;;;7.80;99.90;;;;;;4911082;28;20043;-85
2021/10/09 02:12:59;;;;;;;36.63;23.77;;;7.90;99.90;;;;;;4912284;28;20408;-86
2021/10/09 02:26:02;;;;;;;197.10;23.60;;;7.60;99.90;;;;;;4931716;28;20044;-85
2021/10/09 02:28:28;;;;;;;25.92;18.90;;;7.40;99.90;;;;;;4911109;28;20028;-86
2021/10/09 02:30:54;;;;;;;26.30;19.70;;;7.30;99.90;;;;;;4945199;28;20484;-85
2021/10/09 02:33:19;;;;;;;30.73;20.95;;;7.20;99.90;;;;;;4910456;28;20048;-85
2021/10/09 02:35:46;;;;;;;32.45;21.50;;;7.10;99.90;;;;;;4933171;28;20064;-85
2021/10/09 02:38:11;;;;;;;35.13;23.27;;;7.10;99.90;;;;;;4912455;28;20489;-86
2021/10/09 02:40:37;;;;;;;40.08;24.48;;;7.10;99.90;;;;;;4932079;28;20054;-86
2021/10/09 02:43:03;;;;;;;42.45;25.23;;;7.00;99.90;;;;;;4927920;28;20611;-85
2021/10/09 02:45:29;;;;;;;35.50;23.55;;;7.00;99.90;;;;;;4941068;28;20122;-85
2021/10/09 02:47:58;;;;;;;33.47;22.00;;;7.00;99.90;;;;;;4919111;28;20115;-85
2021/10/09 02:50:24;;;;;;;38.97;24.95;;;7.00;99.90;;;;;;4951581;28;20031;-86
2021/10/09 02:52:49;;;;;;;49.17;28.58;;;6.90;99.90;;;;;;4914279;28;20039;-85
2021/10/09 02:55:18;;;;;;;47.13;28.75;;;6.90;99.90;;;;;;4896951;28;20028;-86
2021/10/09 02:57:44;;;;;;;39.85;27.48;;;7.00;99.90;;;;;;4917982;28;20051;-86
2021/10/09 03:00:16;;;;;;;45.97;28.08;;;7.00;99.90;;;;;;4945828;28;20563;-82
2021/10/09 03:02:41;;;;;;;47.28;28.05;;;7.00;99.90;;;;;;4944809;28;20110;-82
2021/10/09 03:05:07;;;;;;;48.25;30.10;;;6.90;99.90;;;;;;4935643;28;20143;-83
2021/10/09 03:07:33;;;;;;;42.00;27.10;;;6.90;99.90;;;;;;4914073;28;20043;-82
2021/10/09 03:09:58;;;;;;;46.42;29.08;;;6.80;99.90;;;;;;4909736;28;20052;-82
2021/10/09 03:12:24;;;;;;;52.75;30.33;;;6.80;99.90;;;;;;4938261;28;20134;-83
2021/10/09 03:14:50;;;;;;;55.88;31.35;;;6.90;99.90;;;;;;4913780;28;20122;-83
2021/10/09 03:17:17;;;;;;;47.70;29.30;;;6.90;99.90;;;;;;4936144;28;20452;-83
2021/10/09 03:19:42;;;;;;;51.90;30.20;;;6.90;99.90;;;;;;4922558;28;20167;-82
2021/10/09 03:22:08;;;;;;;51.85;30.40;;;6.80;99.90;;;;;;4939352;28;20119;-83
2021/10/09 03:24:33;;;;;;;53.47;29.75;;;6.80;99.90;;;;;;4908256;28;20039;-83
2021/10/09 03:26:59;;;;;;;57.92;31.02;;;6.70;99.90;;;;;;4942569;28;20039;-83
2021/10/09 03:29:25;;;;;;;42.95;28.52;;;6.70;99.90;;;;;;4918607;28;20084;-82
2021/10/09 03:31:50;;;;;;;51.80;30.80;;;6.70;99.90;;;;;;4925815;28;20028;-83
2021/10/09 03:34:16;;;;;;;53.38;30.20;;;6.70;99.90;;;;;;4934939;28;20115;-83
2021/10/09 03:36:43;;;;;;;54.55;31.63;;;6.70;99.90;;;;;;4911802;28;20036;-83
2021/10/09 03:39:12;;;;;;;53.60;31.77;;;6.80;99.90;;;;;;4946162;28;20539;-83
2021/10/09 03:41:40;;;;;;;56.17;30.20;;;6.80;99.90;;;;;;4901510;28;20564;-83
2021/10/09 03:44:06;;;;;;;52.05;31.23;;;6.80;99.90;;;;;;4926021;28;20033;-83
2021/10/09 03:46:38;;;;;;;53.67;29.88;;;6.70;99.90;;;;;;4943815;28;20039;-82
2021/10/09 03:49:21;;;;;;;57.17;31.48;;;6.60;99.90;;;;;;4912582;28;20028;-83
2021/10/09 03:54:30;;;;;;;57.13;33.33;;;6.60;99.90;;;;;;4905487;28;20103;-83
2021/10/09 03:56:56;;;;;;;57.85;30.85;;;6.60;99.90;;;;;;4902113;28;20032;-83
2021/10/09 03:59:21;;;;;;;59.20;31.92;;;6.60;99.90;;;;;;4913759;28;20091;-82
2021/10/09 04:01:47;;;;;;;56.42;32.15;;;6.60;99.90;;;;;;4942060;28;20043;-83
2021/10/09 04:04:12;;;;;;;53.30;30.73;;;6.50;99.90;;;;;;4907150;28;20032;-83
2021/10/09 04:06:38;;;;;;;54.25;30.92;;;6.50;99.90;;;;;;4919734;28;20028;-83
2021/10/09 04:09:03;;;;;;;58.80;32.28;;;6.50;99.90;;;;;;4907763;28;20024;-83
2021/10/09 04:11:29;;;;;;;56.85;32.63;;;6.50;99.90;;;;;;4928001;28;20036;-83
2021/10/09 04:13:55;;;;;;;54.03;32.38;;;6.50;99.90;;;;;;4928599;28;20123;-83
2021/10/09 04:16:20;;;;;;;55.72;31.67;;;6.50;99.90;;;;;;4917152;28;20492;-83
2021/10/09 04:18:46;;;;;;;59.45;33.38;;;6.50;99.90;;;;;;4905395;28;20123;-83
2021/10/09 04:21:11;;;;;;;53.00;32.75;;;6.40;99.90;;;;;;4945005;28;20123;-83
2021/10/09 04:23:37;;;;;;;59.05;32.53;;;6.40;99.90;;;;;;4926624;28;20507;-83
2021/10/09 04:26:02;;;;;;;57.65;33.85;;;6.50;99.90;;;;;;4893802;28;20520;-82
2021/10/09 04:28:28;;;;;;;56.10;30.40;;;6.50;99.90;;;;;;4913487;28;20851;-83
2021/10/09 04:30:53;;;;;;;55.03;31.20;;;6.40;99.90;;;;;;4910091;28;20039;-83
2021/10/09 04:33:19;;;;;;;56.60;32.00;;;6.30;99.90;;;;;;4909998;28;20060;-84
2021/10/09 04:35:45;;;;;;;58.28;31.75;;;6.30;99.90;;;;;;4941213;28;20466;-84
2021/10/09 04:38:11;;;;;;;63.20;31.77;;;6.20;99.90;;;;;;4929503;28;20028;-83
2021/10/09 04:40:37;;;;;;;58.20;33.25;;;6.20;99.90;;;;;;4929975;28;20036;-84
2021/10/09 04:43:03;;;;;;;62.00;34.10;;;6.30;99.90;;;;;;4910910;28;20032;-84
2021/10/09 04:45:28;;;;;;;56.08;31.45;;;6.30;99.90;;;;;;4931087;28;20439;-84
2021/10/09 04:47:54;;;;;;;62.08;32.80;;;6.20;99.90;;;;;;4909497;28;20031;-84
2021/10/09 04:50:19;;;;;;;59.75;33.40;;;6.20;99.90;;;;;;4936613;28;20402;-84
2021/10/09 04:52:45;;;;;;;56.83;32.15;;;6.20;99.90;;;;;;4931915;28;20547;-83
2021/10/09 04:55:10;;;;;;;60.50;32.65;;;6.20;99.90;;;;;;4910639;28;20111;-82
2021/10/09 04:57:36;;;;;;;66.15;33.20;;;6.10;99.90;;;;;;4929727;28;20040;-84
2021/10/09 05:00:01;;;;;;;64.88;32.65;;;6.10;99.90;;;;;;4932016;28;20024;-84
2021/10/09 05:02:27;;;;;;;56.58;33.30;;;6.10;99.90;;;;;;4930086;28;20385;-83
2021/10/09 05:04:53;;;;;;;57.33;31.98;;;6.10;99.90;;;;;;4920925;28;20059;-83
2021/10/09 05:07:18;;;;;;;57.20;31.67;;;6.00;99.90;;;;;;4914714;28;20468;-84
2021/10/09 05:09:44;;;;;;;59.60;32.83;;;6.00;99.90;;;;;;4934367;28;20040;-83
2021/10/09 05:12:09;;;;;;;58.58;31.80;;;6.00;99.90;;;;;;4905873;28;20098;-83
2021/10/09 05:14:35;;;;;;;61.22;32.35;;;6.00;99.90;;;;;;4909577;28;20111;-84
2021/10/09 05:17:01;;;;;;;57.80;31.45;;;5.90;99.90;;;;;;4931880;28;20126;-83
2021/10/09 05:19:27;;;;;;;53.13;30.77;;;5.90;99.90;;;;;;4937628;28;20128;-83
2021/10/09 05:21:52;;;;;;;57.22;31.27;;;5.90;99.90;;;;;;4901500;29;20084;-84
2021/10/09 05:24:18;;;;;;;56.30;30.73;;;5.90;99.90;;;;;;4895193;29;20092;-84
2021/10/09 05:26:44;;;;;;;48.60;29.00;;;5.90;99.90;;;;;;4902890;28;20131;-83
2021/10/09 05:29:14;;;;;;;51.65;29.60;;;5.80;99.90;;;;;;4933710;28;20024;-83
2021/10/09 05:31:40;;;;;;;49.03;28.45;;;5.70;99.90;;;;;;4918907;28;20479;-83
2021/10/09 05:34:06;;;;;;;55.42;28.90;;;5.70;99.90;;;;;;4924628;28;20038;-83
2021/10/09 05:36:31;;;;;;;111.90;30.08;;;5.60;99.90;;;;;;4921959;28;20032;-83
2021/10/09 05:38:57;;;;;;;274.73;34.60;;;5.70;99.90;;;;;;4937250;28;20913;-83
2021/10/09 05:41:22;;;;;;;52.00;27.80;;;5.70;99.90;;;;;;4901340;28;20046;-84
2021/10/09 05:43:48;;;;;;;177.30;30.42;;;5.60;99.90;;;;;;4919801;28;20415;-85
2021/10/09 05:46:14;;;;;;;104.82;28.30;;;5.60;99.90;;;;;;4909579;28;20852;-84
2021/10/09 05:48:40;;;;;;;325.90;33.58;;;5.70;99.90;;;;;;4915410;28;20044;-84
2021/10/09 05:53:46;;;;;;;344.63;30.92;;;5.80;99.90;;;;;;4932376;28;20509;-84
2021/10/09 06:42:27;;;;;;;53.97;27.02;;;5.50;99.90;;;;;;4922004;28;20588;-83
2021/10/09 06:45:06;;;;;;;49.80;28.37;;;5.60;99.90;;;;;;4911590;28;20040;-83
2021/10/09 06:47:44;;;;;;;52.22;27.90;;;5.70;99.90;;;;;;4912044;28;20102;-83
2021/10/09 07:01:08;;;;;;;59.88;31.27;;;5.90;99.90;;;;;;4906501;28;20084;-83
2021/10/09 07:03:34;;;;;;;73.55;33.90;;;6.10;99.90;;;;;;4925863;28;20417;-83
2021/10/09 07:05:59;;;;;;;65.95;33.53;;;6.00;99.90;;;;;;4910822;28;20075;-83
2021/10/09 07:08:25;;;;;;;56.22;31.30;;;6.10;99.90;;;;;;4914560;28;20369;-83
2021/10/09 07:10:50;;;;;;;58.55;30.85;;;6.30;99.90;;;;;;4932103;28;20035;-83
2021/10/09 07:13:16;;;;;;;50.65;27.73;;;6.40;99.90;;;;;;4897940;28;20058;-83
2021/10/09 07:15:42;;;;;;;51.40;30.67;;;6.50;99.90;;;;;;4921871;28;20032;-83
2021/10/09 07:18:14;;;;;;;55.80;30.77;;;6.60;99.90;;;;;;4912022;28;20499;-82
2021/10/09 07:20:40;;;;;;;48.47;27.70;;;6.50;99.90;;;;;;4897360;28;20044;-83
2021/10/09 07:23:07;;;;;;;54.60;32.08;;;6.60;99.90;;;;;;4891085;29;20036;-84
2021/10/09 07:25:36;;;;;;;54.13;30.42;;;6.70;99.90;;;;;;4941150;28;20036;-83
2021/10/09 07:28:01;;;;;;;49.15;27.90;;;6.90;99.90;;;;;;4940231;28;20059;-83
2021/10/09 07:30:27;;;;;;;48.50;26.63;;;6.90;99.90;;;;;;4958060;28;20047;-83
2021/10/09 07:32:53;;;;;;;66.15;35.38;;;7.00;99.90;;;;;;4907527;28;24843;-83
2021/10/09 07:35:18;;;;;;;56.08;33.05;;;7.00;99.90;;;;;;4902359;28;20239;-83
2021/10/09 07:37:44;;;;;;;58.22;32.85;;;7.10;99.90;;;;;;4929996;28;20036;-83
2021/10/09 07:40:10;;;;;;;60.42;35.20;;;7.20;99.90;;;;;;4899175;28;20039;-84
2021/10/09 07:42:36;;;;;;;41.65;25.45;;;7.40;99.90;;;;;;4938197;28;20100;-83
2021/10/09 07:45:02;;;;;;;66.50;37.13;;;7.50;99.90;;;;;;4894997;28;20462;-83
2021/10/09 07:47:27;;;;;;;64.15;35.00;;;7.50;99.90;;;;;;4941637;28;20614;-84
2021/10/09 07:49:53;;;;;;;70.20;38.47;;;7.40;99.90;;;;;;4906152;28;20156;-83
2021/10/09 07:52:18;;;;;;;69.97;38.63;;;7.50;99.90;;;;;;4911663;28;20041;-83
2021/10/09 07:54:45;;;;;;;54.47;32.05;;;7.60;99.90;;;;;;4944230;28;20044;-83
2021/10/09 07:57:10;;;;;;;57.67;34.80;;;7.90;99.90;;;;;;4920432;28;20024;-87
2021/10/09 07:59:36;;;;;;;58.15;35.28;;;8.10;99.90;;;;;;4901494;28;20051;-83
2021/10/09 08:02:03;;;;;;;72.57;38.22;;;8.00;99.90;;;;;;4900006;28;20032;-83
2021/10/09 08:04:29;;;;;;;64.72;36.80;;;7.80;99.90;;;;;;4924772;28;20116;-84
2021/10/09 08:06:55;;;;;;;75.00;40.92;;;8.10;99.90;;;;;;4929674;28;20114;-83
2021/10/09 08:09:21;;;;;;;68.30;37.53;;;7.90;99.90;;;;;;4912512;28;20529;-84
2021/10/09 08:11:47;;;;;;;58.42;34.53;;;8.30;99.90;;;;;;4894330;28;20405;-84
2021/10/09 08:14:12;;;;;;;61.00;34.95;;;8.80;99.90;;;;;;4925603;28;20040;-85
2021/10/09 08:16:40;;;;;;;57.55;33.47;;;8.80;99.90;;;;;;4898476;28;20068;-85
2021/10/09 08:19:06;;;;;;;51.67;29.38;;;9.00;99.90;;;;;;4910836;28;20050;-84
2021/10/09 08:21:39;;;;;;;66.82;35.15;;;9.20;99.90;;;;;;4913175;29;20461;-84
2021/10/09 08:40:15;;;;;;;53.88;29.88;;;10.10;99.90;;;;;;4938303;28;20635;-85
2021/10/09 08:42:41;;;;;;;48.67;31.17;;;10.50;99.90;;;;;;4948201;28;20093;-84
2021/10/09 08:45:07;;;;;;;42.15;29.55;;;10.80;99.90;;;;;;4921329;28;20488;-85
2021/10/09 08:47:37;;;;;;;48.50;29.52;;;11.00;99.90;;;;;;4927351;28;20032;-85
2021/10/09 08:50:09;;;;;;;44.08;27.02;;;10.80;99.90;;;;;;4913785;28;20029;-85
2021/10/09 08:52:35;;;;;;;46.03;30.17;;;11.10;99.90;;;;;;4917118;29;20046;-84
2021/10/09 08:55:20;;;;;;;50.67;32.10;;;11.30;99.90;;;;;;4905111;28;20072;-84
2021/10/09 08:57:48;;;;;;;46.67;28.40;;;11.40;99.90;;;;;;4929215;28;20070;-84
2021/10/09 09:00:17;;;;;;;51.22;31.10;;;11.60;99.90;;;;;;4922789;28;20492;-84
2021/10/09 09:02:53;;;;;;;44.90;25.52;;;11.50;99.90;;;;;;4902605;28;20040;-85
2021/10/09 09:25:37;;;;;;;44.78;27.33;;;12.80;99.90;;;;;;4926234;28;20035;-85
2021/10/09 09:41:24;;;;;;;44.65;27.33;;;12.20;99.90;;;;;;4918023;28;20122;-85
2021/10/09 09:43:53;;;;;;;39.20;26.42;;;12.10;99.90;;;;;;4903360;28;20471;-85
2021/10/09 09:46:21;;;;;;;34.45;23.70;;;13.00;99.90;;;;;;4900302;28;20108;-85
2021/10/09 09:48:50;;;;;;;31.70;23.40;;;13.80;99.90;;;;;;4925637;28;20400;-83
2021/10/09 09:51:17;;;;;;;41.10;25.33;;;14.00;99.90;;;;;;4896660;28;20033;-85
2021/10/09 09:53:44;;;;;;;37.40;22.63;;;14.00;99.90;;;;;;4896156;28;20457;-85
2021/10/09 09:56:11;;;;;;;32.85;24.13;;;14.00;99.90;;;;;;4902363;28;20036;-86
2021/10/09 09:58:38;;;;;;;36.28;22.60;;;13.30;99.90;;;;;;4902962;29;20538;-85
2021/10/09 10:01:05;;;;;;;33.70;23.80;;;13.30;99.90;;;;;;4951929;28;20054;-86
2021/10/09 10:03:31;;;;;;;30.45;22.23;;;14.20;99.90;;;;;;4911831;29;20544;-85
2021/10/09 10:05:56;;;;;;;33.30;22.38;;;14.30;99.90;;;;;;4916627;28;20035;-85
2021/10/09 10:08:25;;;;;;;28.55;17.92;;;14.70;99.90;;;;;;4903440;28;20146;-86
2021/10/09 10:10:52;;;;;;;28.13;19.88;;;15.30;99.90;;;;;;4923392;28;20070;-85
2021/10/09 10:13:17;;;;;;;33.20;21.63;;;15.00;99.90;;;;;;4917665;28;21114;-85
2021/10/09 10:15:43;;;;;;;28.65;18.15;;;14.60;99.90;;;;;;4942693;28;20078;-85
2021/10/09 10:18:09;;;;;;;27.02;18.90;;;15.50;99.90;;;;;;4911245;28;20075;-86
2021/10/09 10:20:48;;;;;;;30.52;19.15;;;15.60;99.90;;;;;;4896294;29;20090;-85
2021/10/09 10:23:36;;;;;;;35.00;20.13;;;15.60;99.90;;;;;;4907203;28;20051;-86
2021/10/09 10:26:20;;;;;;;28.70;18.00;;;14.60;99.90;;;;;;4921469;28;20052;-85
2021/10/09 10:29:00;;;;;;;26.92;17.05;;;15.20;99.90;;;;;;4928826;28;20407;-84
2021/10/09 10:31:27;;;;;;;24.67;16.42;;;15.90;99.90;;;;;;4924976;28;20024;-84
2021/10/09 10:34:00;;;;;;;28.67;18.42;;;15.80;99.90;;;;;;4904698;28;20047;-84
2021/10/09 10:36:43;;;;;;;24.65;17.05;;;15.50;99.90;;;;;;4927768;28;20460;-83
2021/10/09 10:39:09;;;;;;;31.33;18.67;;;16.00;99.90;;;;;;4922439;28;20029;-83
2021/10/09 10:41:47;;;;;;;22.42;15.32;;;16.20;99.90;;;;;;4898393;28;20051;-83
2021/10/09 10:44:53;;;;;;;30.13;18.50;;;16.60;99.90;;;;;;4238432;28;10001347;-82
2021/10/09 10:50:57;;;;;;;26.20;16.77;;;16.10;99.00;;;;;;4936901;28;20171;-83
2021/10/09 10:53:37;;;;;;;23.75;15.90;;;16.30;99.90;;;;;;4914398;28;21585;-84
2021/10/09 10:56:09;;;;;;;22.27;15.38;;;16.90;99.70;;;;;;4897148;28;20047;-85
2021/10/09 10:58:35;;;;;;;28.27;17.13;;;17.40;99.90;;;;;;4937386;28;20039;-84
2021/10/09 11:01:23;;;;;;;21.58;13.48;;;17.40;99.20;;;;;;4894748;28;20036;-82
2021/10/09 11:03:55;;;;;;;22.27;15.52;;;17.60;99.10;;;;;;4941460;28;20044;-82
2021/10/09 11:06:24;;;;;;;24.92;15.55;;;17.80;98.40;;;;;;4901093;28;20036;-83
2021/10/09 11:08:52;;;;;;;22.83;13.50;;;18.00;99.30;;;;;;4923006;28;20040;-85
2021/10/09 11:11:31;;;;;;;25.05;16.50;;;18.50;98.00;;;;;;4884198;28;20040;-84
2021/10/09 11:14:00;;;;;;;24.23;16.13;;;17.80;97.40;;;;;;4896821;28;20492;-85
2021/10/09 11:16:29;;;;;;;20.30;13.13;;;17.70;99.00;;;;;;4900461;29;20032;-84
2021/10/09 11:19:02;;;;;;;24.73;14.18;;;17.70;98.60;;;;;;4891170;28;20377;-84
2021/10/09 11:21:31;;;;;;;19.77;13.73;;;18.30;98.40;;;;;;4885099;28;20444;-84
2021/10/09 11:23:58;;;;;;;24.58;15.65;;;18.60;97.60;;;;;;4929101;28;20484;-84
2021/10/09 11:26:26;;;;;;;17.13;12.10;;;17.60;97.50;;;;;;4908024;28;20901;-84
2021/10/09 11:29:01;;;;;;;17.95;10.77;;;18.60;98.30;;;;;;4892816;28;20031;-84
2021/10/09 11:31:28;;;;;;;19.60;14.30;;;19.50;96.40;;;;;;4893636;28;20059;-84
2021/10/09 11:34:02;;;;;;;14.98;11.45;;;18.10;94.80;;;;;;4890737;28;20052;-84
2021/10/09 11:36:28;;;;;;;19.08;13.90;;;18.30;97.70;;;;;;4898883;28;20041;-85
2021/10/09 11:39:20;;;;;;;20.45;14.68;;;18.80;96.90;;;;;;4894873;28;20039;-84
2021/10/09 11:42:08;;;;;;;19.13;13.13;;;18.20;96.30;;;;;;4903845;28;20036;-84
2021/10/09 11:44:39;;;;;;;16.17;12.82;;;18.50;97.00;;;;;;4911419;29;20040;-84
2021/10/09 11:55:26;;;;;;;13.45;10.50;;;20.10;94.60;;;;;;4916946;28;20103;-85
2021/10/09 11:57:51;;;;;;;21.60;12.85;;;20.60;94.60;;;;;;4900962;28;20060;-85
2021/10/09 12:00:31;;;;;;;16.10;12.05;;;21.00;94.20;;;;;;4925419;28;20036;-84
2021/10/09 12:03:26;;;;;;;17.30;10.77;;;19.50;96.30;;;;;;4941717;28;20036;-84
2021/10/09 12:05:55;;;;;;;12.23;10.10;;;20.50;93.60;;;;;;4917547;28;20481;-84
2021/10/09 12:08:26;;;;;;;21.65;12.52;;;21.50;92.50;;;;;;4928890;28;20032;-84
2021/10/09 12:11:08;;;;;;;16.40;11.02;;;21.00;93.10;;;;;;4923396;28;20031;-84
2021/10/09 12:13:46;;;;;;;20.55;13.57;;;20.80;93.70;;;;;;4917900;28;25401;-84
2021/10/09 12:16:12;;;;;;;14.23;10.60;;;19.80;95.50;;;;;;4959911;28;20511;-85
2021/10/09 12:18:57;;;;;;;18.45;13.13;;;19.70;94.70;;;;;;4929696;28;20031;-83
2021/10/09 12:21:27;;;;;;;19.52;13.80;;;20.30;94.90;;;;;;4951985;28;20040;-82
2021/10/09 12:23:53;;;;;;;21.67;12.43;;;20.30;94.80;;;;;;4909074;28;20060;-85
2021/10/09 12:26:19;;;;;;;19.63;13.30;;;19.80;94.60;;;;;;4930524;28;20136;-84
2021/10/09 12:29:03;;;;;;;23.67;12.75;;;18.90;95.60;;;;;;4915312;28;20040;-85
2021/10/09 12:31:29;;;;;;;17.80;12.95;;;19.10;96.50;;;;;;4944763;28;20036;-85
2021/10/09 12:33:55;;;;;;;21.23;12.85;;;19.40;95.10;;;;;;4914823;28;20447;-84
2021/10/09 12:36:41;;;;;;;16.42;12.18;;;19.30;93.80;;;;;;4933462;28;20028;-85
2021/10/09 12:39:25;;;;;;;20.50;12.63;;;19.00;94.40;;;;;;4901671;28;20390;-85
2021/10/09 12:41:54;;;;;;;15.43;11.82;;;18.70;95.50;;;;;;4936914;28;20060;-84
2021/10/09 12:44:19;;;;;;;23.55;13.57;;;18.50;96.30;;;;;;4924972;28;20519;-85
2021/10/09 12:46:45;;;;;;;17.73;11.85;;;19.10;94.30;;;;;;4922674;28;20032;-85
2021/10/09 12:49:11;;;;;;;20.58;13.02;;;20.10;94.10;;;;;;4930045;28;20032;-85
2021/10/09 12:51:37;;;;;;;19.27;12.00;;;19.20;94.00;;;;;;4908238;29;20037;-85
2021/10/09 12:54:05;;;;;;;20.40;13.57;;;19.90;94.40;;;;;;4929373;28;20039;-85
2021/10/09 12:56:31;;;;;;;16.63;13.30;;;19.20;96.20;;;;;;4951858;28;20040;-85
2021/10/09 12:58:57;;;;;;;16.95;10.45;;;19.40;94.90;;;;;;4907781;28;20027;-85
2021/10/09 13:01:24;;;;;;;17.73;12.63;;;19.80;94.60;;;;;;4901815;28;20035;-85
2021/10/09 13:03:50;;;;;;;21.45;13.18;;;20.30;94.20;;;;;;4929103;28;20099;-85
2021/10/09 13:06:16;;;;;;;20.48;11.15;;;19.80;94.10;;;;;;4925913;28;20095;-85
2021/10/09 13:08:41;;;;;;;25.63;13.93;;;20.10;94.40;;;;;;4911941;29;20407;-86
2021/10/09 13:11:07;;;;;;;18.40;11.93;;;20.30;93.30;;;;;;4919170;28;20099;-85
2021/10/09 13:13:33;;;;;;;21.08;12.05;;;19.30;95.40;;;;;;4919299;28;20036;-85
2021/10/09 13:15:58;;;;;;;15.98;10.98;;;19.40;92.20;;;;;;4929422;28;20535;-85
2021/10/09 13:18:24;;;;;;;19.80;11.70;;;20.00;93.20;;;;;;4908388;28;20044;-85
2021/10/09 13:20:49;;;;;;;15.65;11.80;;;19.60;93.70;;;;;;4942882;28;20504;-85
2021/10/09 13:23:15;;;;;;;22.35;12.68;;;19.50;95.40;;;;;;4909874;28;20028;-85
2021/10/09 13:25:40;;;;;;;14.88;11.75;;;18.70;94.30;;;;;;4922978;28;20515;-86
2021/10/09 13:28:06;;;;;;;15.93;11.70;;;19.00;95.20;;;;;;4925998;28;20507;-85
2021/10/09 13:30:32;;;;;;;24.33;11.70;;;19.00;95.30;;;;;;4901420;28;20122;-86
2021/10/09 13:32:58;;;;;;;17.20;11.10;;;19.20;93.10;;;;;;4911449;28;20071;-86
2021/10/09 13:35:23;;;;;;;20.90;10.55;;;20.00;92.90;;;;;;4928933;28;20059;-86
2021/10/09 13:37:51;;;;;;;21.13;12.50;;;20.50;93.50;;;;;;4900878;28;20032;-86
2021/10/09 13:40:16;;;;;;;19.88;12.18;;;19.20;96.10;;;;;;4903416;28;20045;-86
2021/10/09 13:42:42;;;;;;;14.05;10.70;;;19.00;96.40;;;;;;4934087;28;20039;-86
2021/10/09 13:45:08;;;;;;;16.95;10.77;;;19.50;94.00;;;;;;4945074;28;20038;-86
2021/10/09 13:47:34;;;;;;;18.90;12.98;;;19.90;94.10;;;;;;4925925;28;20071;-86
2021/10/09 13:50:00;;;;;;;18.85;10.98;;;19.10;95.20;;;;;;4933257;28;20033;-86
2021/10/09 13:52:25;;;;;;;13.65;10.13;;;19.70;93.80;;;;;;4929755;28;20032;-87
2021/10/09 13:54:51;;;;;;;24.10;14.00;;;20.20;92.20;;;;;;4927628;28;20036;-87
2021/10/09 13:57:16;;;;;;;20.40;12.40;;;20.00;94.90;;;;;;4943677;28;20032;-87
2021/10/09 13:59:42;;;;;;;11.55;9.02;;;19.60;95.40;;;;;;4946780;28;20032;-87
2021/10/09 14:02:08;;;;;;;15.73;11.35;;;20.50;93.00;;;;;;4922808;28;20739;-87
2021/10/09 14:04:38;;;;;;;17.23;11.77;;;20.50;92.50;;;;;;4912935;28;20079;-87
2021/10/09 14:07:03;;;;;;;18.75;11.60;;;20.00;92.60;;;;;;4909589;28;20036;-87
2021/10/09 14:09:29;;;;;;;26.80;12.82;;;20.10;92.80;;;;;;4930823;28;20060;-87
2021/10/09 14:11:55;;;;;;;21.77;11.23;;;20.20;92.20;;;;;;4921692;28;20039;-87
2021/10/09 14:14:22;;;;;;;23.48;12.70;;;20.20;92.00;;;;;;4901606;28;20036;-87
2021/10/09 14:16:48;;;;;;;24.70;13.65;;;19.70;94.60;;;;;;4904139;28;20043;-88
2021/10/09 14:19:13;;;;;;;19.88;11.90;;;19.20;95.30;;;;;;4912022;29;20036;-87
2021/10/09 14:21:39;;;;;;;16.48;10.32;;;19.20;92.20;;;;;;4930150;28;20068;-87
2021/10/09 14:24:05;;;;;;;21.08;12.73;;;19.70;92.90;;;;;;4920451;28;20040;-87
2021/10/09 14:26:30;;;;;;;19.58;11.57;;;18.70;96.10;;;;;;4910920;28;20032;-87
2021/10/09 14:28:56;;;;;;;21.80;12.63;;;18.80;94.70;;;;;;4920507;28;20032;-87
2021/10/09 14:31:22;;;;;;;24.67;12.82;;;18.60;93.00;;;;;;4916428;28;20596;-87
2021/10/09 14:33:48;;;;;;;19.50;12.38;;;18.60;93.90;;;;;;4923578;28;20107;-87
2021/10/09 14:36:14;;;;;;;15.18;9.70;;;19.20;93.50;;;;;;4930398;28;20035;-87
2021/10/09 14:38:41;;;;;;;16.52;10.75;;;19.70;92.40;;;;;;4932180;28;20492;-87
2021/10/09 14:41:07;;;;;;;20.17;11.45;;;20.40;91.90;;;;;;4900870;28;20028;-87
2021/10/09 14:43:36;;;;;;;17.52;9.82;;;20.10;91.60;;;;;;4922048;28;20064;-87
2021/10/09 14:47:19;;;;;;;17.17;10.23;;;19.20;93.90;;;;;;4918783;28;20035;-87
2021/10/09 14:48:51;;;;;;;14.93;8.23;;;18.50;92.40;;;;;;4919582;28;20099;-87
2021/10/09 15:01:15;;;;;;;15.32;9.57;;;20.50;90.10;;;;;;4934724;28;20040;-87